Time;durP1;ratioP1;P1;durP2;ratioP2;P2;SDS_P1;SDS_P2;PMS_P1;PMS_P2;Temp;Humidity;BMP_temperature;BMP_pressure;BME280_temperature;BME280_humidity;BME280_pressure;Samples;Min_cycle;Max_cycle;Signal;HPM_P1;HPM_P2
2023/01/24 05:22:32;;;;;;;15.90;7.18;;;;;;;2.47;100.00;101861.38;5091092;28;20328;-68
2023/01/24 05:24:57;;;;;;;23.52;6.90;;;;;;;2.48;100.00;101860.44;5089713;28;20062;-68
2023/01/24 05:27:23;;;;;;;16.33;6.50;;;;;;;2.43;100.00;101860.72;5089992;28;20064;-67
2023/01/24 05:29:55;;;;;;;22.70;6.90;;;;;;;2.48;99.97;101860.44;5090914;28;20051;-69
2023/01/24 05:32:21;;;;;;;21.80;6.50;;;;;;;2.50;100.00;101859.47;5089781;28;20032;-69
2023/01/24 05:34:46;;;;;;;16.88;5.88;;;;;;;2.48;99.68;101860.44;5090795;28;20037;-69
2023/01/24 05:37:13;;;;;;;16.10;6.97;;;;;;;2.55;99.66;101877.63;5088446;28;20480;-68
2023/01/24 05:39:41;;;;;;;21.10;7.18;;;;;;;2.58;99.58;101869.56;5088403;28;20286;-69
2023/01/24 05:42:07;;;;;;;17.77;7.00;;;;;;;2.62;99.01;101873.75;5071937;28;20028;-68
2023/01/24 05:44:40;;;;;;;19.17;6.75;;;;;;;2.59;99.01;101874.75;5088799;28;20039;-68
2023/01/24 05:47:06;;;;;;;16.63;6.18;;;;;;;2.56;99.64;101880.19;5090510;28;20036;-68
2023/01/24 05:49:35;;;;;;;22.10;7.72;;;;;;;2.58;99.66;101882.72;5091136;28;20495;-68
2023/01/24 05:52:01;;;;;;;17.10;7.28;;;;;;;2.56;99.56;101882.81;5071804;28;20036;-69
2023/01/24 05:54:48;;;;;;;22.50;6.82;;;;;;;2.52;100.00;101876.00;5073772;28;20097;-69
2023/01/24 05:57:37;;;;;;;15.63;7.25;;;;;;;2.55;99.84;101889.00;5080448;28;20071;-68
2023/01/24 06:00:18;;;;;;;15.38;6.55;;;;;;;2.47;99.92;101879.81;5090131;28;20258;-68
2023/01/24 06:03:03;;;;;;;11.80;4.93;;;;;;;2.53;99.43;101888.22;5089789;28;20109;-68
2023/01/24 06:05:29;;;;;;;16.15;6.57;;;;;;;2.55;99.95;101893.44;5087946;28;20572;-68
2023/01/24 06:07:54;;;;;;;14.73;5.57;;;;;;;2.54;99.71;101896.97;5089796;28;20369;-69
2023/01/24 06:10:20;;;;;;;13.98;5.88;;;;;;;2.58;99.58;101898.50;5089395;28;20406;-68
2023/01/24 06:12:54;;;;;;;13.10;5.30;;;;;;;2.56;99.77;101903.84;5089013;28;20032;-68
2023/01/24 06:15:19;;;;;;;15.07;5.85;;;;;;;2.59;99.54;101908.94;5089878;28;20036;-68
2023/01/24 06:17:45;;;;;;;10.73;5.78;;;;;;;2.60;99.61;101912.41;5089533;28;20024;-68
2023/01/24 06:20:12;;;;;;;8.30;4.70;;;;;;;2.59;99.59;101906.31;5089973;28;20042;-69
2023/01/24 06:22:52;;;;;;;14.60;4.88;;;;;;;2.56;99.39;101909.13;5090649;28;20519;-67
2023/01/24 06:25:24;;;;;;;11.93;5.47;;;;;;;2.56;99.57;101913.53;5090129;28;20047;-68
2023/01/24 06:27:50;;;;;;;13.45;5.75;;;;;;;2.49;100.00;101910.38;5091559;28;20040;-65
2023/01/24 06:30:17;;;;;;;14.80;5.53;;;;;;;2.57;100.00;101916.06;5087423;28;20043;-66
2023/01/24 06:32:58;;;;;;;15.02;5.93;;;;;;;2.59;100.00;101921.25;5081249;28;20105;-66
2023/01/24 06:35:49;;;;;;;8.85;4.70;;;;;;;2.60;100.00;101917.69;5074346;28;20040;-65
2023/01/24 06:38:23;;;;;;;12.30;5.32;;;;;;;2.58;99.51;101914.28;5057746;28;20063;-66
2023/01/24 06:40:53;;;;;;;16.65;6.05;;;;;;;2.54;99.85;101929.38;5074225;28;20039;-64
2023/01/24 06:43:19;;;;;;;12.15;5.13;;;;;;;2.54;100.00;101925.91;5072942;28;20331;-65
2023/01/24 06:45:44;;;;;;;10.52;4.93;;;;;;;2.58;99.85;101933.56;5074239;28;20039;-66
2023/01/24 06:48:10;;;;;;;17.63;5.97;;;;;;;2.58;99.78;101936.19;5073918;28;20119;-65
2023/01/24 06:50:35;;;;;;;9.30;5.55;;;;;;;2.54;99.40;101928.53;5073915;28;20044;-65
2023/01/24 06:53:01;;;;;;;12.65;4.78;;;;;;;2.60;100.00;101936.94;5074197;28;20028;-64
2023/01/24 06:55:26;;;;;;;12.98;5.65;;;;;;;2.60;99.37;101933.47;5073788;28;20040;-66
2023/01/24 06:57:56;;;;;;;20.17;7.70;;;;;;;2.57;100.00;101937.13;5055667;28;20040;-66
2023/01/24 07:00:22;;;;;;;9.65;4.88;;;;;;;2.58;100.00;101938.81;5073873;28;20123;-65
2023/01/24 07:02:48;;;;;;;9.65;4.32;;;;;;;2.58;99.50;101951.97;5073747;28;20474;-65
2023/01/24 07:05:13;;;;;;;10.38;4.68;;;;;;;2.59;99.80;101952.81;5072463;28;20040;-65
2023/01/24 07:07:38;;;;;;;11.77;5.68;;;;;;;2.62;99.51;101952.69;5073432;28;20049;-65
2023/01/24 07:10:05;;;;;;;10.55;5.57;;;;;;;2.61;99.43;101957.09;5073526;28;20047;-65
2023/01/24 07:12:30;;;;;;;11.73;5.43;;;;;;;2.60;99.76;101941.38;5072337;28;20075;-65
2023/01/24 07:14:56;;;;;;;9.32;4.53;;;;;;;2.62;100.00;101957.94;5073749;28;20033;-66
2023/01/24 07:17:21;;;;;;;12.05;5.78;;;;;;;2.62;99.09;101952.69;5073267;28;20517;-65
2023/01/24 07:19:47;;;;;;;13.63;5.70;;;;;;;2.61;99.05;101946.56;5072267;28;20044;-65
2023/01/24 07:22:13;;;;;;;8.52;5.10;;;;;;;2.60;99.88;101954.53;5073305;28;20035;-66
2023/01/24 07:24:39;;;;;;;14.82;6.20;;;;;;;2.61;99.88;101950.97;5073413;28;20055;-66
2023/01/24 07:27:04;;;;;;;12.77;6.30;;;;;;;2.61;99.62;101961.50;5073196;28;20033;-66
2023/01/24 07:29:30;;;;;;;11.25;5.00;;;;;;;2.55;99.95;101951.31;5073036;28;20560;-66
2023/01/24 07:31:55;;;;;;;16.00;5.85;;;;;;;2.54;100.00;101955.69;5071880;28;20136;-63
2023/01/24 07:34:21;;;;;;;10.77;5.30;;;;;;;2.60;99.80;101958.00;5073092;28;20037;-64
2023/01/24 07:36:47;;;;;;;10.75;5.95;;;;;;;2.62;99.73;101968.47;5071688;28;20046;-63
2023/01/24 07:39:15;;;;;;;9.32;4.70;;;;;;;2.54;100.00;101962.72;5054730;28;20124;-65
2023/01/24 07:41:43;;;;;;;13.10;5.22;;;;;;;2.63;99.79;101962.28;5073129;28;20091;-66
2023/01/24 07:44:11;;;;;;;10.10;5.10;;;;;;;2.62;99.62;101963.22;5070674;28;20044;-66
2023/01/24 07:46:37;;;;;;;11.82;6.00;;;;;;;2.58;99.36;101951.97;5072680;28;20029;-65
2023/01/24 07:49:03;;;;;;;13.82;6.28;;;;;;;2.58;100.00;101959.88;5071298;28;20123;-66
2023/01/24 07:51:28;;;;;;;11.70;5.80;;;;;;;2.60;100.00;101965.88;5073105;28;20331;-66
2023/01/24 07:53:54;;;;;;;9.63;5.57;;;;;;;2.62;99.90;101971.09;5071942;28;20108;-66
2023/01/24 07:56:20;;;;;;;13.93;5.65;;;;;;;2.63;100.00;101967.53;5073385;28;20040;-66
2023/01/24 07:58:45;;;;;;;11.13;4.07;;;;;;;2.66;99.99;101968.19;5072533;28;20040;-66
2023/01/24 08:01:21;;;;;;;9.02;4.85;;;;;;;2.66;99.84;101976.09;5071504;28;20029;-67
2023/01/24 08:03:47;;;;;;;12.38;5.30;;;;;;;2.63;99.66;101967.53;5072559;28;20062;-68
2023/01/24 08:06:12;;;;;;;10.15;5.65;;;;;;;2.67;99.51;101976.94;5072362;28;20447;-68
2023/01/24 08:08:37;;;;;;;12.80;6.05;;;;;;;2.69;99.13;101989.13;5072097;28;20033;-67
2023/01/24 08:11:03;;;;;;;9.48;4.88;;;;;;;2.73;99.54;101982.72;5072345;28;20533;-65
2023/01/24 08:13:29;;;;;;;7.53;5.07;;;;;;;2.70;99.58;101987.31;5071291;28;20047;-67
2023/01/24 08:15:54;;;;;;;11.18;6.10;;;;;;;2.69;99.17;101991.75;5072420;28;20075;-68
2023/01/24 08:18:19;;;;;;;9.50;4.78;;;;;;;2.67;99.31;101990.09;5071871;28;20037;-67
2023/01/24 08:20:45;;;;;;;10.40;5.45;;;;;;;2.72;99.57;102001.25;5071825;28;20442;-67
2023/01/24 08:23:10;;;;;;;10.52;4.20;;;;;;;2.67;99.44;101992.72;5071999;28;20455;-67
2023/01/24 08:25:36;;;;;;;8.23;4.40;;;;;;;2.69;99.78;101990.91;5072105;28;20048;-67
2023/01/24 08:28:01;;;;;;;14.02;5.50;;;;;;;2.73;99.62;101997.69;5071752;28;20131;-66
2023/01/24 08:30:27;;;;;;;7.35;4.05;;;;;;;2.70;100.00;101990.81;5072061;28;20040;-66
2023/01/24 08:33:00;;;;;;;8.13;4.47;;;;;;;2.80;99.75;101998.22;5071974;28;20462;-66
2023/01/24 08:35:25;;;;;;;13.70;5.20;;;;;;;2.72;99.49;101998.63;5071690;28;20044;-65
2023/01/24 08:37:51;;;;;;;8.00;4.65;;;;;;;2.70;99.38;102003.97;5071603;28;20041;-67
2023/01/24 08:40:16;;;;;;;10.10;4.55;;;;;;;2.74;99.62;102004.66;5071838;28;20408;-66
2023/01/24 08:42:42;;;;;;;8.63;4.25;;;;;;;2.76;100.00;102008.06;5071865;28;20040;-66
2023/01/24 08:45:08;;;;;;;12.50;5.28;;;;;;;2.74;99.66;102012.56;5071745;28;20123;-66
2023/01/24 08:47:33;;;;;;;9.25;4.35;;;;;;;2.82;99.76;102017.44;5071409;28;20259;-67
2023/01/24 08:49:59;;;;;;;11.15;4.93;;;;;;;2.78;99.38;102014.09;5071498;28;20075;-67
2023/01/24 08:52:24;;;;;;;11.23;4.38;;;;;;;2.77;100.00;102015.03;5071561;28;20045;-66
2023/01/24 08:54:49;;;;;;;10.70;5.35;;;;;;;2.82;98.98;102033.22;5071604;28;20055;-68
2023/01/24 08:57:15;;;;;;;14.50;5.65;;;;;;;2.80;99.35;102042.94;5069893;28;20054;-68
2023/01/24 08:59:40;;;;;;;8.23;4.32;;;;;;;2.87;98.40;102034.69;5071457;28;20049;-66
2023/01/24 09:02:06;;;;;;;12.73;5.00;;;;;;;2.89;99.19;102037.22;5071459;28;20068;-67
2023/01/24 09:04:31;;;;;;;11.77;4.53;;;;;;;2.89;98.13;102035.44;5071417;28;20119;-67
2023/01/24 09:06:57;;;;;;;12.82;5.10;;;;;;;2.85;98.95;102043.56;5071229;28;20028;-68
2023/01/24 09:09:24;;;;;;;9.27;5.32;;;;;;;2.87;99.44;102047.84;5071219;28;20051;-68
2023/01/24 09:11:49;;;;;;;9.10;4.53;;;;;;;2.88;98.63;102040.78;5071641;28;20036;-68
2023/01/24 09:14:15;;;;;;;9.05;4.82;;;;;;;2.90;98.57;102039.78;5071357;28;20064;-66
2023/01/24 09:16:40;;;;;;;9.38;4.20;;;;;;;2.90;98.53;102045.03;5071269;28;20043;-68
2023/01/24 09:19:06;;;;;;;8.90;4.75;;;;;;;2.91;98.77;102046.72;5070927;28;20103;-67
2023/01/24 09:21:32;;;;;;;7.05;3.88;;;;;;;2.89;98.63;102043.34;5071114;28;20028;-68
2023/01/24 09:23:57;;;;;;;9.65;5.10;;;;;;;2.89;98.44;102039.84;5071225;28;20086;-68
2023/01/24 09:26:23;;;;;;;8.88;4.63;;;;;;;2.96;97.77;102046.50;5071115;28;20040;-66
2023/01/24 09:28:48;;;;;;;6.80;3.30;;;;;;;2.91;98.52;102049.38;5071034;28;20121;-67
2023/01/24 09:31:14;;;;;;;10.02;5.32;;;;;;;2.92;98.12;102050.22;5071186;28;20056;-67
2023/01/24 09:33:39;;;;;;;11.02;5.30;;;;;;;2.89;98.50;102061.75;5071151;28;20500;-67
2023/01/24 09:36:05;;;;;;;8.57;3.80;;;;;;;2.94;98.10;102053.63;5071121;28;20040;-69
2023/01/24 09:38:32;;;;;;;7.75;4.25;;;;;;;2.95;98.17;102055.34;5070921;28;20508;-68
2023/01/24 09:41:10;;;;;;;11.27;5.07;;;;;;;2.93;98.34;102063.31;5071018;28;20033;-68
2023/01/24 09:43:54;;;;;;;8.10;4.15;;;;;;;2.96;98.22;102052.63;5071029;28;20074;-67
2023/01/24 09:46:48;;;;;;;6.93;3.95;;;;;;;2.86;98.81;102053.16;5071136;28;20447;-68
2023/01/24 09:49:46;;;;;;;5.72;3.88;;;;;;;2.97;98.39;102056.09;5065635;28;20044;-68
2023/01/24 09:52:23;;;;;;;7.75;4.13;;;;;;;2.96;97.84;102051.75;5070982;28;20504;-68
2023/01/24 09:55:16;;;;;;;10.73;4.38;;;;;;;2.97;97.17;102061.34;5070954;28;20036;-68
2023/01/24 09:57:42;;;;;;;8.88;3.97;;;;;;;2.98;97.90;102060.44;5066232;28;20048;-67
2023/01/24 10:00:19;;;;;;;10.35;5.32;;;;;;;2.98;97.95;102055.16;5071052;28;20482;-68
2023/01/24 10:02:44;;;;;;;10.40;4.45;;;;;;;3.00;98.06;102053.31;5071075;28;20436;-67
2023/01/24 10:05:15;;;;;;;13.23;4.75;;;;;;;3.06;97.67;102054.75;5070686;28;20093;-65
2023/01/24 10:07:59;;;;;;;9.48;4.82;;;;;;;3.10;97.34;102054.53;5071717;28;20505;-64
2023/01/24 10:10:51;;;;;;;9.32;4.22;;;;;;;3.12;97.40;102046.53;5073546;28;20040;-65
2023/01/24 10:13:41;;;;;;;10.02;4.80;;;;;;;3.07;97.66;102048.59;5067434;28;20052;-66
2023/01/24 10:16:31;;;;;;;14.07;4.38;;;;;;;3.04;97.80;102048.72;5074523;28;20032;-66
2023/01/24 10:18:59;;;;;;;8.43;3.75;;;;;;;3.15;97.75;102046.38;5074254;28;20504;-66
2023/01/24 10:21:40;;;;;;;7.60;3.85;;;;;;;3.10;97.57;102045.78;5074441;28;20485;-66
2023/01/24 10:24:14;;;;;;;8.30;4.55;;;;;;;3.12;96.59;102042.09;5074486;28;20040;-66
2023/01/24 10:26:49;;;;;;;9.48;4.72;;;;;;;3.15;97.05;102035.84;5074345;28;20032;-65
2023/01/24 10:29:24;;;;;;;11.38;5.05;;;;;;;3.18;97.13;102046.19;5074139;28;20325;-66
2023/01/24 10:32:04;;;;;;;9.05;4.40;;;;;;;3.19;96.74;102045.25;5074256;28;20040;-66
2023/01/24 10:34:37;;;;;;;8.13;4.57;;;;;;;3.19;96.52;102037.38;5074306;28;20474;-66
2023/01/24 10:37:09;;;;;;;10.15;5.13;;;;;;;3.21;96.46;102046.91;5074014;28;20401;-67
2023/01/24 10:39:34;;;;;;;10.27;4.53;;;;;;;3.23;96.40;102046.81;5074007;28;20059;-66
2023/01/24 10:42:00;;;;;;;8.48;4.47;;;;;;;3.24;96.16;102040.59;5074109;28;20482;-66
2023/01/24 10:44:28;;;;;;;6.30;4.00;;;;;;;3.20;96.15;102042.56;5073919;28;20041;-67
2023/01/24 10:47:08;;;;;;;9.73;4.65;;;;;;;3.24;96.41;102045.88;5073829;28;20093;-67
2023/01/24 10:49:40;;;;;;;8.65;4.97;;;;;;;3.23;96.71;102038.91;5073952;28;20044;-66
2023/01/24 10:52:17;;;;;;;7.35;4.47;;;;;;;3.22;96.32;102042.47;5073836;28;20082;-65
2023/01/24 10:54:56;;;;;;;7.78;4.28;;;;;;;3.31;96.39;102043.75;5073924;28;20127;-66
2023/01/24 10:57:31;;;;;;;9.65;5.05;;;;;;;3.36;95.46;102032.03;5073408;28;20053;-64
2023/01/24 11:00:06;;;;;;;6.05;4.03;;;;;;;3.34;95.39;102035.72;5073852;28;20124;-66
2023/01/24 11:02:34;;;;;;;9.57;4.57;;;;;;;3.30;96.23;102035.00;5073652;28;20086;-65
2023/01/24 11:05:05;;;;;;;10.65;4.05;;;;;;;3.33;95.94;102028.75;5073692;28;20123;-66
2023/01/24 11:07:35;;;;;;;7.75;4.10;;;;;;;3.33;95.95;102032.22;5073153;28;20048;-65
2023/01/24 11:10:11;;;;;;;9.45;4.50;;;;;;;3.39;95.19;102037.16;5073804;28;20086;-65
2023/01/24 11:12:46;;;;;;;6.43;3.15;;;;;;;3.38;95.41;102030.16;5073371;28;20098;-66
2023/01/24 11:15:38;;;;;;;10.40;4.63;;;;;;;3.43;95.50;102029.94;5073775;28;20387;-67
2023/01/24 11:18:21;;;;;;;7.75;4.13;;;;;;;3.42;96.07;102033.50;5072686;28;20048;-66
2023/01/24 11:21:04;;;;;;;7.60;4.30;;;;;;;3.42;95.30;102034.34;5073327;28;20040;-66
2023/01/24 11:23:30;;;;;;;5.70;4.35;;;;;;;3.42;95.73;102023.81;5073255;28;20616;-66
2023/01/24 11:25:58;;;;;;;6.25;3.40;;;;;;;3.43;95.34;102032.56;5073175;28;20401;-66
2023/01/24 11:28:27;;;;;;;8.13;4.43;;;;;;;3.42;95.71;102030.88;5072896;28;20052;-66
2023/01/24 11:30:56;;;;;;;7.97;4.10;;;;;;;3.51;95.17;102025.09;5073168;28;20065;-66
2023/01/24 11:33:21;;;;;;;7.43;3.90;;;;;;;3.52;95.20;102017.13;5090560;28;20039;-67
2023/01/24 11:35:53;;;;;;;9.52;4.25;;;;;;;3.57;94.38;102027.38;5093230;28;20035;-66
2023/01/24 11:38:31;;;;;;;7.65;3.70;;;;;;;3.58;95.16;102022.97;5093209;28;20372;-66
2023/01/24 11:40:56;;;;;;;;;;;;;;;3.60;94.53;102023.75;5093633;28;20020;-67
2023/01/24 11:43:37;;;;;;;6.40;3.85;;;;;;;3.58;94.32;102015.06;5093144;28;20387;-65
2023/01/24 11:46:10;;;;;;;7.93;3.90;;;;;;;3.60;94.52;102026.38;5091738;28;20103;-64
2023/01/24 11:49:05;;;;;;;8.07;4.25;;;;;;;3.52;95.49;102018.88;5092934;28;20044;-65
2023/01/24 11:51:50;;;;;;;9.05;4.85;;;;;;;3.62;94.50;102021.88;5093747;28;20043;-66
2023/01/24 11:54:18;;;;;;;6.80;4.10;;;;;;;3.65;94.25;102014.66;5094281;28;20093;-68
2023/01/24 11:57:04;;;;;;;;;;;;;;;3.65;94.34;102022.56;5093183;28;20039;-65
2023/01/24 11:59:29;;;;;;;5.45;3.95;;;;;;;3.61;94.55;102021.00;5093147;28;19955;-64
2023/01/24 12:02:29;;;;;;;8.43;4.13;;;;;;;3.61;94.15;102017.53;5093254;28;20090;-65
2023/01/24 12:05:23;;;;;;;8.73;3.67;;;;;;;3.62;94.61;102013.97;5092920;28;20249;-66
2023/01/24 12:08:07;;;;;;;9.32;4.05;;;;;;;3.61;95.27;102001.72;5092383;28;20093;-66
2023/01/24 12:10:56;;;;;;;8.90;3.90;;;;;;;3.71;94.38;102009.00;5093317;28;20146;-66
2023/01/24 12:13:24;;;;;;;5.85;3.47;;;;;;;3.74;94.22;102006.22;5092640;28;20031;-66
2023/01/24 12:16:28;;;;;;;6.28;4.18;;;;;;;3.70;94.35;101995.91;5093014;28;20475;-66
2023/01/24 12:18:53;;;;;;;7.43;4.07;;;;;;;3.66;94.57;102004.97;5077512;28;20054;-65
2023/01/24 12:21:18;;;;;;;7.82;3.65;;;;;;;3.67;93.20;101982.94;5062153;28;20032;-67
2023/01/24 12:24:08;;;;;;;6.80;3.33;;;;;;;3.67;94.09;101980.28;5059320;28;20037;-67
2023/01/24 12:26:47;;;;;;;5.72;3.38;;;;;;;3.64;94.40;101989.19;5051316;28;20063;-66
2023/01/24 12:29:25;;;;;;;6.93;3.70;;;;;;;3.68;93.76;101985.47;5051864;28;20041;-66
2023/01/24 12:32:13;;;;;;;8.63;4.38;;;;;;;3.70;94.17;101988.00;5050152;28;20057;-66
2023/01/24 12:34:48;;;;;;;6.43;4.13;;;;;;;3.72;93.91;101978.25;5051960;28;20068;-67
2023/01/24 12:37:31;;;;;;;7.47;4.70;;;;;;;3.78;93.09;101983.16;5051427;28;20041;-66
2023/01/24 12:40:06;;;;;;;7.95;3.70;;;;;;;3.77;93.44;101981.47;5050656;28;20048;-67
2023/01/24 12:42:57;;;;;;;7.47;4.20;;;;;;;3.75;93.98;101978.06;5051735;28;20024;-67
2023/01/24 12:45:30;;;;;;;5.22;4.25;;;;;;;3.83;93.67;101977.63;5051490;28;20408;-67
2023/01/24 12:48:09;;;;;;;5.13;3.45;;;;;;;3.86;92.98;101983.59;5051288;28;20059;-67
2023/01/24 12:50:49;;;;;;;8.05;3.45;;;;;;;3.87;93.36;101981.78;5056837;28;20047;-66
2023/01/24 12:53:31;;;;;;;4.97;3.28;;;;;;;3.89;93.30;101979.91;5056763;28;20051;-67
2023/01/24 12:56:21;;;;;;;5.88;3.55;;;;;;;3.77;93.87;101971.75;5050302;28;20052;-65
2023/01/24 12:58:50;;;;;;;5.85;2.95;;;;;;;3.87;93.55;101980.00;5051218;28;20053;-66
2023/01/24 13:01:16;;;;;;;7.35;4.35;;;;;;;3.88;93.45;101973.78;5051486;28;20112;-66
2023/01/24 13:03:47;;;;;;;5.18;3.28;;;;;;;3.92;94.01;101975.31;5051585;28;20529;-67
2023/01/24 13:06:20;;;;;;;7.63;3.60;;;;;;;3.91;93.98;101970.13;5051385;28;20036;-66
2023/01/24 13:08:54;;;;;;;7.93;3.80;;;;;;;3.92;93.95;101980.59;5051148;28;20107;-67
2023/01/24 13:11:28;;;;;;;5.85;2.92;;;;;;;3.96;92.81;101971.56;5051375;28;20488;-67
2023/01/24 13:14:06;;;;;;;6.63;3.17;;;;;;;3.96;92.72;101975.97;5051268;28;20051;-67
2023/01/24 13:16:34;;;;;;;8.18;3.50;;;;;;;3.98;92.85;101980.25;5051216;28;20043;-65
2023/01/24 13:19:21;;;;;;;7.70;3.63;;;;;;;4.00;92.94;101986.28;5051150;28;20107;-65
2023/01/24 13:22:05;;;;;;;11.02;3.90;;;;;;;3.97;92.91;101978.53;5051132;28;20040;-65
2023/01/24 13:24:42;;;;;;;8.98;3.50;;;;;;;3.98;93.12;101974.13;5051232;28;20417;-66
2023/01/24 13:27:24;;;;;;;8.18;4.28;;;;;;;3.93;93.55;101976.16;5050797;28;20039;-65
2023/01/24 13:30:04;;;;;;;5.43;2.78;;;;;;;3.95;92.71;101975.13;5051027;28;20029;-65
2023/01/24 13:32:38;;;;;;;6.35;3.03;;;;;;;3.90;92.47;101971.91;5049744;28;20037;-65
2023/01/24 13:35:15;;;;;;;4.00;2.65;;;;;;;3.88;92.62;101981.69;5066182;28;20043;-66
2023/01/24 13:37:40;;;;;;;5.53;3.30;;;;;;;3.94;92.07;101972.59;5070983;28;20735;-65
2023/01/24 13:40:15;;;;;;;5.43;3.53;;;;;;;3.84;93.44;101974.91;5071300;28;20447;-65
2023/01/24 13:42:41;;;;;;;5.50;3.05;;;;;;;3.85;92.84;101962.56;5072450;28;20029;-65
2023/01/24 13:45:36;;;;;;;8.75;3.83;;;;;;;3.88;93.30;101965.88;5075105;28;20127;-64
2023/01/24 13:48:40;;;;;;;8.18;3.78;;;;;;;3.87;93.29;101976.53;5074801;28;20040;-65
2023/01/24 13:51:19;;;;;;;8.25;2.83;;;;;;;3.86;92.71;101975.69;5074948;28;20036;-64
2023/01/24 13:53:59;;;;;;;7.00;3.42;;;;;;;3.95;93.40;101982.19;5074853;28;20036;-65
2023/01/24 13:56:25;;;;;;;4.82;3.00;;;;;;;3.94;92.69;101980.50;5075185;28;20032;-67
2023/01/24 13:58:52;;;;;;;4.38;2.97;;;;;;;3.97;93.14;101978.53;5062348;28;20474;-66
2023/01/24 14:01:18;;;;;;;4.80;3.10;;;;;;;3.91;93.03;101984.19;5054908;28;20029;-67
2023/01/24 14:03:53;;;;;;;8.23;4.25;;;;;;;3.94;92.80;101983.13;5054926;28;20322;-67
2023/01/24 14:06:18;;;;;;;8.02;3.58;;;;;;;3.93;92.82;101989.34;5054956;28;20048;-67
2023/01/24 14:09:00;;;;;;;4.35;3.05;;;;;;;3.91;93.52;101980.66;5054448;28;20053;-66
2023/01/24 14:11:32;;;;;;;5.00;3.25;;;;;;;3.89;93.27;101986.03;5054734;28;20120;-67
2023/01/24 14:14:21;;;;;;;7.20;3.42;;;;;;;3.84;94.07;101985.44;5054356;28;20170;-66
2023/01/24 14:16:46;;;;;;;6.35;3.33;;;;;;;3.89;93.22;101983.41;5053220;28;20091;-65
2023/01/24 14:19:20;;;;;;;7.95;3.70;;;;;;;3.83;93.81;101980.25;5052650;28;20037;-67
2023/01/24 14:21:55;;;;;;;6.00;3.25;;;;;;;3.83;93.32;101990.81;5054888;28;20123;-66
2023/01/24 14:24:28;;;;;;;6.30;3.85;;;;;;;3.81;93.55;101986.47;5054263;28;20032;-66
2023/01/24 14:27:15;;;;;;;5.13;2.88;;;;;;;3.83;93.41;101983.75;5053485;28;20098;-65
2023/01/24 14:29:44;;;;;;;6.10;3.20;;;;;;;3.83;93.83;101983.75;5054211;28;20029;-66
2023/01/24 14:32:24;;;;;;;6.60;3.63;;;;;;;3.75;94.19;101980.69;5054293;28;20490;-66
2023/01/24 14:35:30;;;;;;;6.10;2.85;;;;;;;3.80;93.92;101986.56;5053095;28;20052;-65
2023/01/24 14:38:13;;;;;;;5.53;3.00;;;;;;;3.86;93.84;101986.22;5038843;28;20088;-64
2023/01/24 14:40:40;;;;;;;8.00;3.25;;;;;;;3.83;93.87;101986.38;5053701;28;20037;-65
2023/01/24 14:43:06;;;;;;;6.30;3.10;;;;;;;3.87;92.85;101987.91;5053930;28;20049;-65
2023/01/24 14:45:33;;;;;;;6.93;3.63;;;;;;;3.75;94.01;101993.88;5054118;28;20064;-65
2023/01/24 14:48:01;;;;;;;5.10;3.08;;;;;;;3.82;93.65;101982.03;5053710;28;20065;-65
2023/01/24 14:50:33;;;;;;;;;;;;;;;3.77;93.71;101984.94;5053965;28;20391;-65
2023/01/24 14:52:59;;;;;;;5.03;3.28;;;;;;;3.77;94.21;101987.56;5053538;28;19997;-62
2023/01/24 14:55:38;;;;;;;4.60;3.33;;;;;;;3.72;94.04;101994.06;5053718;28;20099;-64
2023/01/24 14:58:15;;;;;;;4.65;3.13;;;;;;;3.74;93.98;101990.41;5053493;28;20773;-65
2023/01/24 15:00:41;;;;;;;6.18;3.00;;;;;;;3.73;94.71;102004.53;5053730;28;20064;-65
2023/01/24 15:03:06;;;;;;;4.53;2.92;;;;;;;3.73;93.96;101995.75;5053662;28;20067;-66
2023/01/24 15:05:37;;;;;;;5.38;2.78;;;;;;;3.75;93.33;101994.72;5053497;28;20506;-66
2023/01/24 15:08:06;;;;;;;4.93;2.35;;;;;;;3.77;93.98;102003.38;5053314;28;20055;-65
2023/01/24 15:10:40;;;;;;;6.35;4.03;;;;;;;3.79;93.75;102000.69;5053319;28;20126;-66
2023/01/24 15:13:18;;;;;;;6.38;3.65;;;;;;;3.82;93.95;102011.03;5052071;28;20040;-66
2023/01/24 15:15:44;;;;;;;4.68;3.17;;;;;;;3.72;94.79;101999.34;5053410;28;20098;-66
2023/01/24 15:18:37;;;;;;;4.75;2.90;;;;;;;3.71;95.06;102005.53;5053098;28;20112;-67
2023/01/24 15:21:03;;;;;;;6.20;3.47;;;;;;;3.77;94.09;102015.72;5068735;28;20087;-65
2023/01/24 15:23:31;;;;;;;6.22;3.92;;;;;;;3.69;94.73;102010.03;5053437;28;20033;-65
2023/01/24 15:25:56;;;;;;;;;;;;;;;3.74;94.48;102010.63;5053570;28;20055;-66
2023/01/24 15:28:29;;;;;;;6.22;2.70;;;;;;;3.70;94.72;102011.75;5052926;28;19912;-64
2023/01/24 15:30:59;;;;;;;6.25;2.72;;;;;;;3.70;94.32;102011.75;5053195;28;20045;-66
2023/01/24 15:33:38;;;;;;;5.15;3.40;;;;;;;3.60;94.74;102016.69;5053162;28;20132;-66
2023/01/24 15:36:05;;;;;;;5.47;3.22;;;;;;;3.61;94.50;102018.38;5052980;28;20131;-66
2023/01/24 15:38:40;;;;;;;9.15;3.65;;;;;;;3.60;94.18;102023.75;5051493;28;20099;-66
2023/01/24 15:41:11;;;;;;;7.35;3.58;;;;;;;3.61;94.76;102023.66;5052954;28;20029;-66
2023/01/24 15:43:46;;;;;;;6.07;3.10;;;;;;;3.56;94.21;102027.47;5052947;28;20033;-65
2023/01/24 15:49:25;;;;;;;6.68;3.15;;;;;;;3.47;95.54;102027.06;5052784;28;20068;-64
2023/01/24 15:52:16;;;;;;;5.82;3.35;;;;;;;3.51;95.77;102025.09;5052848;28;20046;-62
2023/01/24 15:54:45;;;;;;;5.20;3.45;;;;;;;3.52;95.87;102027.66;5050407;28;20053;-64
2023/01/24 15:57:20;;;;;;;7.03;3.00;;;;;;;3.48;96.17;102033.16;5052286;28;20043;-65
2023/01/24 15:59:52;;;;;;;6.32;3.63;;;;;;;3.51;95.60;102033.00;5054011;28;20083;-63
2023/01/24 16:02:17;;;;;;;6.78;3.55;;;;;;;3.42;96.25;102034.34;5053436;28;20439;-65
2023/01/24 16:04:44;;;;;;;7.78;3.35;;;;;;;3.42;96.11;102034.34;5052523;28;20110;-65
2023/01/24 16:07:10;;;;;;;8.68;4.32;;;;;;;3.39;96.16;102021.34;5052164;28;20041;-65
2023/01/24 16:09:35;;;;;;;6.15;3.15;;;;;;;3.41;96.43;102027.38;5052575;28;20044;-65
2023/01/24 16:12:01;;;;;;;4.43;2.55;;;;;;;3.39;96.72;102033.66;5051338;28;20029;-63
2023/01/24 16:14:27;;;;;;;10.02;3.67;;;;;;;3.40;96.96;102036.22;5052587;28;20502;-65
2023/01/24 16:16:59;;;;;;;6.35;3.17;;;;;;;3.35;96.62;102030.34;5065317;28;20397;-64
2023/01/24 16:19:25;;;;;;;6.43;3.08;;;;;;;3.39;97.29;102038.91;5072189;28;20051;-65
2023/01/24 16:21:51;;;;;;;5.57;2.95;;;;;;;3.42;96.94;102039.63;5072360;28;20068;-66
2023/01/24 16:24:17;;;;;;;9.55;3.38;;;;;;;3.43;96.74;102035.19;5072024;28;20099;-65
2023/01/24 16:26:48;;;;;;;7.28;3.33;;;;;;;3.36;97.14;102036.47;5072174;28;20117;-66
2023/01/24 16:29:19;;;;;;;5.85;3.88;;;;;;;3.41;96.68;102040.56;5071919;28;20043;-65
2023/01/24 16:31:45;;;;;;;6.53;3.47;;;;;;;3.34;97.18;102040.97;5070960;28;20044;-65
2023/01/24 16:34:11;;;;;;;6.47;3.08;;;;;;;3.36;97.80;102045.22;5070927;28;20046;-68
2023/01/24 16:36:37;;;;;;;5.78;3.60;;;;;;;3.31;97.39;102047.25;5072020;28;20044;-67
2023/01/24 16:39:03;;;;;;;5.57;3.33;;;;;;;3.28;97.26;102043.94;5070647;28;20033;-68
2023/01/24 16:41:29;;;;;;;4.75;3.25;;;;;;;3.30;97.33;102050.81;5072060;28;20369;-66
2023/01/24 16:43:55;;;;;;;5.03;3.63;;;;;;;3.32;97.24;102048.94;5072219;28;20111;-67
2023/01/24 16:46:22;;;;;;;6.07;3.38;;;;;;;3.33;97.48;102055.94;5071963;28;20382;-66
2023/01/24 16:48:48;;;;;;;5.33;3.17;;;;;;;3.29;97.75;102058.81;5071752;28;20037;-65
2023/01/24 16:51:15;;;;;;;5.70;3.28;;;;;;;3.26;97.74;102060.69;5071780;28;20119;-66
2023/01/24 16:53:40;;;;;;;5.65;3.30;;;;;;;3.29;97.74;102058.81;5070651;28;20448;-68
2023/01/24 16:56:06;;;;;;;5.80;2.90;;;;;;;3.26;97.92;102060.69;5071781;28;20037;-66
2023/01/24 16:58:32;;;;;;;6.13;3.45;;;;;;;3.24;97.82;102054.63;5071630;28;20028;-65
2023/01/24 17:00:58;;;;;;;4.97;3.03;;;;;;;3.26;98.17;102054.56;5071751;28;20132;-66
2023/01/24 17:03:23;;;;;;;5.40;3.80;;;;;;;3.21;98.40;102052.16;5071812;28;20547;-67
2023/01/24 17:05:49;;;;;;;7.45;2.97;;;;;;;3.19;98.46;102056.66;5071595;28;20041;-67
2023/01/24 17:08:14;;;;;;;7.85;3.83;;;;;;;3.19;98.95;102061.91;5071435;28;20042;-67
2023/01/24 17:10:41;;;;;;;8.88;3.95;;;;;;;3.13;99.49;102059.63;5070505;28;20029;-65
2023/01/24 17:13:07;;;;;;;6.78;3.88;;;;;;;3.20;98.80;102065.44;5071791;28;20078;-64
2023/01/24 17:15:39;;;;;;;8.73;4.22;;;;;;;3.22;98.81;102072.31;5071674;28;20036;-64
2023/01/24 17:18:05;;;;;;;5.88;3.08;;;;;;;3.23;98.96;102068.72;5071518;28;20043;-65